Time;durP1;ratioP1;P1;durP2;ratioP2;P2;SDS_P1;SDS_P2;PMS_P1;PMS_P2;Temp;Humidity;BMP_temperature;BMP_pressure;BME280_temperature;BME280_humidity;BME280_pressure;Samples;Min_cycle;Max_cycle;Signal;HPM_P1;HPM_P2
2022/05/14 00:02:10;;;;;;;0.65;0.52;;;;;;;14.83;85.13;101018.13;5031827;28;20032;-66
2022/05/14 00:04:35;;;;;;;0.98;0.85;;;;;;;14.78;85.30;101018.50;5039521;28;20033;-68
2022/05/14 00:07:01;;;;;;;5.22;0.85;;;;;;;14.85;84.70;101005.00;5031630;28;20041;-66
2022/05/14 00:09:26;;;;;;;2.95;0.70;;;;;;;14.88;84.36;101006.97;5044653;28;20029;-65
2022/05/14 00:14:36;;;;;;;0.77;0.50;;;;;;;14.85;83.67;101011.19;5036970;28;20503;-66
2022/05/14 00:17:02;;;;;;;1.17;0.88;;;;;;;14.85;83.65;101011.19;5029132;28;20037;-66
2022/05/14 00:19:27;;;;;;;6.55;1.02;;;;;;;14.83;83.61;101010.00;5039052;28;20038;-66
2022/05/14 00:21:53;;;;;;;1.40;0.93;;;;;;;14.88;82.83;100996.91;5041200;22;20045;-66
2022/05/14 00:24:18;;;;;;;1.85;1.05;;;;;;;14.84;83.17;101000.72;5029685;28;20033;-67
2022/05/14 00:26:44;;;;;;;2.42;0.95;;;;;;;14.86;82.47;100995.72;5029053;28;20400;-67
2022/05/14 00:29:10;;;;;;;0.45;0.45;;;;;;;14.84;82.63;100992.59;5028166;28;20044;-67
2022/05/14 00:31:35;;;;;;;1.10;0.80;;;;;;;14.79;82.20;100993.72;5028793;28;20021;-67
2022/05/14 00:34:01;;;;;;;0.65;0.47;;;;;;;14.85;81.94;100989.50;5026608;28;20037;-67
2022/05/14 00:36:27;;;;;;;1.42;0.82;;;;;;;14.86;81.57;100995.72;5029331;28;20107;-67
2022/05/14 00:38:54;;;;;;;1.65;0.60;;;;;;;14.78;81.83;100997.59;5026252;28;20400;-68
2022/05/14 00:41:19;;;;;;;0.88;0.65;;;;;;;14.81;81.43;100993.31;5028130;28;20030;-67
2022/05/14 00:43:50;;;;;;;0.65;0.60;;;;;;;14.77;81.47;100995.25;5028896;28;20083;-70
2022/05/14 00:46:20;;;;;;;2.33;0.60;;;;;;;14.77;81.63;100992.53;5027769;28;20095;-67
2022/05/14 00:48:47;;;;;;;1.95;1.20;;;;;;;14.79;81.29;100984.81;5024043;28;20361;-67
2022/05/14 00:51:26;;;;;;;0.82;0.70;;;;;;;14.76;81.05;100983.63;5022293;28;20389;-67
2022/05/14 00:54:01;;;;;;;0.93;0.77;;;;;;;14.77;80.97;100996.00;5043905;28;20574;-67
2022/05/14 00:56:31;;;;;;;0.65;0.60;;;;;;;14.74;81.21;100998.69;5029070;28;20108;-68
2022/05/14 00:59:10;;;;;;;0.75;0.60;;;;;;;14.76;80.49;100996.41;5028355;28;20037;-67
2022/05/14 01:01:36;;;;;;;0.75;0.70;;;;;;;14.75;80.85;100997.56;5028305;28;20488;-67
2022/05/14 01:04:03;;;;;;;1.48;0.77;;;;;;;14.73;80.83;101002.59;5025634;28;20128;-67
2022/05/14 01:06:30;;;;;;;1.40;0.68;;;;;;;14.71;81.01;100996.75;5021492;28;20121;-67
2022/05/14 01:08:58;;;;;;;0.70;0.65;;;;;;;14.73;81.19;101002.59;5025471;28;20283;-67
2022/05/14 01:11:27;;;;;;;1.05;0.68;;;;;;;14.76;81.07;100989.06;5025713;28;20097;-68
2022/05/14 01:13:53;;;;;;;0.90;0.90;;;;;;;14.70;81.55;100985.13;5029123;28;20478;-67
2022/05/14 01:16:20;;;;;;;5.22;0.80;;;;;;;14.68;81.40;100983.94;5027015;28;20045;-67
2022/05/14 01:18:46;;;;;;;2.08;0.85;;;;;;;14.63;81.87;100985.06;5027040;28;20037;-67
2022/05/14 01:21:36;;;;;;;1.55;0.90;;;;;;;14.65;81.99;100988.19;5025105;28;20029;-67
2022/05/14 01:26:59;;;;;;;1.52;0.65;;;;;;;14.64;82.09;100980.41;5028177;28;20127;-67
2022/05/14 01:29:26;;;;;;;1.00;0.70;;;;;;;14.59;82.73;100976.13;5028659;28;20083;-67
2022/05/14 01:31:58;;;;;;;2.50;0.98;;;;;;;14.57;82.80;100978.44;5028348;28;20559;-67
2022/05/14 01:34:30;;;;;;;1.25;0.60;;;;;;;14.57;82.88;100975.72;5022819;28;20128;-67
2022/05/14 01:36:56;;;;;;;1.20;0.68;;;;;;;14.62;82.60;100974.56;5024025;28;20183;-67
2022/05/14 01:39:22;;;;;;;9.25;1.15;;;;;;;14.73;82.15;100964.63;5027939;28;20169;-67
2022/05/14 01:41:49;;;;;;;1.02;0.77;;;;;;;14.64;82.39;100970.34;5026846;28;20033;-67
2022/05/14 01:44:14;;;;;;;2.85;0.95;;;;;;;14.61;83.04;100975.75;5027891;28;20032;-67
2022/05/14 01:46:40;;;;;;;1.27;0.90;;;;;;;14.56;83.29;100967.94;5027575;28;20103;-67
2022/05/14 01:49:08;;;;;;;8.35;1.13;;;;;;;14.58;83.32;100976.47;5026067;28;20076;-67
2022/05/14 01:51:34;;;;;;;2.75;0.70;;;;;;;14.62;82.71;100971.88;5026705;28;20431;-67
2022/05/14 01:54:01;;;;;;;3.65;0.88;;;;;;;14.64;82.90;100967.63;5027677;28;20419;-67
2022/05/14 01:56:27;;;;;;;2.05;0.88;;;;;;;14.61;82.94;100967.59;5027395;28;20107;-67
2022/05/14 01:58:53;;;;;;;0.90;0.63;;;;;;;14.67;83.02;100974.25;5027511;28;20029;-67
2022/05/14 02:01:24;;;;;;;1.83;0.77;;;;;;;14.69;83.03;100963.81;5028299;28;20025;-67
2022/05/14 02:03:57;;;;;;;1.90;0.85;;;;;;;14.77;83.15;100960.00;5026719;28;20035;-67
2022/05/14 02:06:26;;;;;;;0.88;0.73;;;;;;;14.77;83.18;100968.16;5027015;28;20472;-67
2022/05/14 02:08:52;;;;;;;1.95;0.80;;;;;;;14.72;83.92;100969.25;5027640;28;20075;-67
2022/05/14 02:11:19;;;;;;;1.27;1.02;;;;;;;14.80;83.21;100975.53;5028085;28;20028;-67
2022/05/14 02:13:50;;;;;;;0.80;0.80;;;;;;;14.79;83.22;100973.97;5027105;28;20033;-66
2022/05/14 02:16:16;;;;;;;0.85;0.82;;;;;;;14.77;82.89;100971.63;5019942;28;20087;-67
2022/05/14 02:18:42;;;;;;;4.18;0.88;;;;;;;14.79;83.36;100969.31;5025901;28;20056;-67
2022/05/14 02:21:09;;;;;;;1.00;0.65;;;;;;;14.78;83.34;100966.97;5040594;28;20022;-67
2022/05/14 02:23:38;;;;;;;1.13;1.00;;;;;;;14.81;83.09;100972.44;5044149;28;20033;-67
2022/05/14 02:26:05;;;;;;;2.28;0.73;;;;;;;14.79;82.95;100969.31;5026977;28;20034;-67
2022/05/14 02:28:32;;;;;;;0.90;0.90;;;;;;;14.75;83.31;100965.03;5023685;28;20080;-67
2022/05/14 02:30:57;;;;;;;1.52;1.00;;;;;;;14.75;83.55;100965.78;5018942;28;20029;-68
2022/05/14 02:33:23;;;;;;;1.92;0.88;;;;;;;14.76;83.39;100974.72;5023929;28;20499;-67
2022/05/14 02:35:48;;;;;;;0.85;0.80;;;;;;;14.70;84.01;100965.34;5032122;28;20026;-66
2022/05/14 02:38:15;;;;;;;1.85;0.98;;;;;;;14.68;84.41;100973.09;5031646;28;20029;-67
2022/05/14 02:40:42;;;;;;;0.80;0.50;;;;;;;14.67;84.47;100975.03;5026620;28;20128;-69
2022/05/14 02:43:08;;;;;;;1.67;1.17;;;;;;;14.70;84.46;100982.41;5030820;28;20507;-67
2022/05/14 02:45:34;;;;;;;1.08;0.82;;;;;;;14.72;84.28;100984.75;5030018;28;20025;-68
2022/05/14 02:48:00;;;;;;;1.50;1.02;;;;;;;14.68;84.87;100987.41;5031897;28;20029;-67
2022/05/14 02:50:26;;;;;;;2.85;1.00;;;;;;;14.70;84.70;100985.13;5032497;28;20033;-67
2022/05/14 02:52:52;;;;;;;0.90;0.80;;;;;;;14.67;84.70;100983.16;5036029;28;20396;-67
2022/05/14 02:55:19;;;;;;;3.00;0.93;;;;;;;14.67;85.14;100988.59;5021509;28;20037;-67
2022/05/14 02:57:44;;;;;;;2.20;0.90;;;;;;;14.72;84.87;100990.16;5035808;28;20029;-67
2022/05/14 03:00:14;;;;;;;1.77;0.88;;;;;;;14.67;84.94;100988.59;5031043;28;20153;-67
2022/05/14 03:02:39;;;;;;;1.13;1.02;;;;;;;14.69;85.25;100983.53;5028479;28;20026;-67
2022/05/14 03:05:06;;;;;;;1.67;0.73;;;;;;;14.72;85.31;100984.75;5027778;28;20480;-67
2022/05/14 03:07:32;;;;;;;2.78;0.60;;;;;;;14.72;85.01;100990.16;5030876;28;20032;-67
2022/05/14 03:09:58;;;;;;;1.35;0.77;;;;;;;14.74;85.43;100994.06;5031055;28;20033;-67
2022/05/14 03:12:24;;;;;;;1.15;1.05;;;;;;;14.69;85.18;100986.25;5030368;28;20083;-67
2022/05/14 03:14:50;;;;;;;1.45;1.00;;;;;;;14.73;85.16;100987.06;5028415;28;20026;-67
2022/05/14 03:17:17;;;;;;;2.35;0.82;;;;;;;14.73;85.44;100989.78;5031552;28;20033;-67
2022/05/14 03:19:42;;;;;;;3.40;0.70;;;;;;;14.73;85.48;100994.44;5031509;28;20080;-67
2022/05/14 03:22:09;;;;;;;5.75;0.82;;;;;;;14.73;85.54;100989.03;5029413;28;20037;-67
2022/05/14 03:24:36;;;;;;;1.02;0.70;;;;;;;14.72;85.43;100996.38;5031143;28;20022;-67
2022/05/14 03:27:05;;;;;;;3.13;1.10;;;;;;;14.73;85.63;100997.16;5031954;28;20033;-66
2022/05/14 03:29:32;;;;;;;1.30;0.85;;;;;;;14.75;85.43;100995.63;5032016;28;20044;-67
2022/05/14 03:31:57;;;;;;;1.85;1.02;;;;;;;14.70;85.79;100992.47;5031537;28;20033;-67
2022/05/14 03:34:27;;;;;;;1.92;0.90;;;;;;;14.69;85.83;101007.19;5030077;28;20584;-67
2022/05/14 03:36:53;;;;;;;0.75;0.70;;;;;;;14.66;85.71;101008.72;5030628;28;20048;-67
2022/05/14 03:39:19;;;;;;;3.60;0.60;;;;;;;14.64;85.44;100989.31;5031304;28;20029;-68
2022/05/14 03:41:45;;;;;;;4.57;1.02;;;;;;;14.64;85.70;101002.09;5029710;28;20033;-67
2022/05/14 03:44:12;;;;;;;4.38;1.05;;;;;;;14.63;85.96;101014.09;5028659;28;20035;-67
2022/05/14 03:46:37;;;;;;;0.68;0.65;;;;;;;14.59;86.10;101005.16;5029526;28;20396;-67
2022/05/14 03:49:04;;;;;;;1.65;1.00;;;;;;;14.54;86.32;101005.50;5028269;28;20025;-67
2022/05/14 03:51:30;;;;;;;2.30;0.90;;;;;;;14.55;86.29;101013.25;5031967;28;20028;-67
2022/05/14 03:53:56;;;;;;;3.83;0.65;;;;;;;14.54;86.51;101016.34;5026755;28;20492;-67
2022/05/14 03:56:23;;;;;;;1.70;0.82;;;;;;;14.51;86.85;101017.06;5044623;28;20052;-68
2022/05/14 03:58:48;;;;;;;4.15;0.55;;;;;;;14.50;86.66;101027.13;5029936;28;20558;-67
2022/05/14 04:01:14;;;;;;;2.42;0.93;;;;;;;14.54;86.86;101027.19;5030810;28;20037;-67
2022/05/14 04:03:40;;;;;;;0.70;0.68;;;;;;;14.53;86.73;101034.53;5026930;28;20025;-67
2022/05/14 04:06:07;;;;;;;1.83;1.10;;;;;;;14.57;87.05;101031.84;5030505;28;20040;-67
2022/05/14 04:08:33;;;;;;;0.70;0.70;;;;;;;14.51;87.25;101034.13;5029807;28;20034;-67
2022/05/14 04:10:59;;;;;;;1.73;1.00;;;;;;;14.54;87.37;101038.03;5024591;28;20877;-67
2022/05/14 04:13:26;;;;;;;1.10;0.82;;;;;;;14.60;87.17;101031.09;5026672;28;20159;-67
2022/05/14 04:15:52;;;;;;;3.50;1.10;;;;;;;14.64;87.29;101040.81;5029179;28;20043;-66
2022/05/14 04:18:24;;;;;;;1.52;0.90;;;;;;;14.67;87.10;101042.03;5029986;28;20029;-66
2022/05/14 04:20:53;;;;;;;1.33;0.90;;;;;;;14.67;87.02;101048.22;5027206;28;20217;-67
2022/05/14 04:23:20;;;;;;;1.25;1.15;;;;;;;14.70;87.10;101042.06;5027426;28;20132;-66
2022/05/14 04:25:50;;;;;;;0.77;0.77;;;;;;;14.78;86.41;101043.69;5028805;28;20388;-66
2022/05/14 04:28:18;;;;;;;1.20;0.77;;;;;;;14.73;87.02;101043.25;5028313;28;20132;-67
2022/05/14 04:30:44;;;;;;;3.25;0.75;;;;;;;14.80;87.14;101049.50;5029007;28;20025;-66
2022/05/14 04:33:10;;;;;;;3.08;0.55;;;;;;;14.87;86.23;101046.84;5029311;28;20033;-66
2022/05/14 04:35:36;;;;;;;4.75;1.00;;;;;;;14.85;86.60;101046.44;5029307;28;20514;-66
2022/05/14 04:38:01;;;;;;;1.02;0.70;;;;;;;14.88;86.58;101053.06;5027067;28;20025;-66
2022/05/14 04:40:27;;;;;;;2.95;0.90;;;;;;;14.91;86.49;101052.31;5028659;28;20068;-66
2022/05/14 04:42:53;;;;;;;1.20;0.98;;;;;;;14.83;87.06;101053.41;5028913;28;20099;-68
2022/05/14 04:45:18;;;;;;;3.78;1.23;;;;;;;14.84;86.99;101057.69;5027100;28;20030;-66
2022/05/14 04:47:44;;;;;;;7.28;1.00;;;;;;;14.88;87.05;101061.22;5021030;28;20033;-66
2022/05/14 04:50:12;;;;;;;0.63;0.40;;;;;;;14.95;87.16;101055.84;5025637;28;20029;-66
2022/05/14 04:52:38;;;;;;;1.42;1.00;;;;;;;15.06;87.02;101060.19;5028054;28;20025;-66
2022/05/14 04:55:06;;;;;;;1.83;1.25;;;;;;;15.08;86.58;101066.03;5027910;28;20034;-66
2022/05/14 04:57:32;;;;;;;2.85;1.00;;;;;;;15.11;86.73;101069.94;5026000;28;20399;-66
2022/05/14 04:59:58;;;;;;;1.15;0.80;;;;;;;15.17;86.19;101076.59;5036599;28;20037;-67
2022/05/14 05:05:11;;;;;;;2.45;1.17;;;;;;;15.10;87.04;101071.06;5014658;28;20112;-66
2022/05/14 05:07:36;;;;;;;1.80;0.73;;;;;;;15.10;87.11;101081.94;5020351;28;20040;-66
2022/05/14 05:10:03;;;;;;;1.05;0.82;;;;;;;15.03;87.29;101088.09;5026887;28;20519;-66
2022/05/14 05:12:28;;;;;;;2.40;2.05;;;;;;;15.13;87.12;101084.69;5029952;28;20029;-67
2022/05/14 05:14:54;;;;;;;1.88;0.90;;;;;;;15.10;87.67;101098.22;5028767;28;20037;-66
2022/05/14 05:17:19;;;;;;;1.70;0.88;;;;;;;15.08;87.75;101095.88;5026461;28;20029;-66
2022/05/14 05:19:45;;;;;;;2.63;1.17;;;;;;;15.19;87.16;101098.69;5026501;28;20025;-66
2022/05/14 05:22:10;;;;;;;4.03;1.35;;;;;;;15.21;87.16;101104.53;5026422;28;20037;-66
2022/05/14 05:24:36;;;;;;;6.03;1.63;;;;;;;15.17;87.48;101101.78;5023509;28;20036;-66
2022/05/14 05:27:01;;;;;;;2.38;1.23;;;;;;;15.23;87.45;101107.66;5024602;28;20039;-66
2022/05/14 05:29:27;;;;;;;6.38;1.25;;;;;;;15.25;86.93;101103.38;5022898;28;20029;-66
2022/05/14 05:31:52;;;;;;;2.42;1.20;;;;;;;15.25;87.86;101108.06;5021641;28;20037;-66
2022/05/14 05:34:18;;;;;;;1.65;0.70;;;;;;;15.29;87.54;101106.91;5018032;28;20080;-66
2022/05/14 05:36:43;;;;;;;1.45;1.20;;;;;;;15.26;87.97;101112.31;5021682;28;20363;-66
2022/05/14 05:39:10;;;;;;;1.58;1.08;;;;;;;15.30;88.10;101107.69;5021722;28;20033;-66
2022/05/14 05:41:37;;;;;;;4.53;1.33;;;;;;;15.37;87.53;101108.53;5027116;28;20120;-67
2022/05/14 05:44:03;;;;;;;0.75;0.70;;;;;;;15.32;87.76;101108.91;5027877;28;20042;-66
2022/05/14 05:46:28;;;;;;;1.23;1.10;;;;;;;15.37;87.81;101107.75;5029409;28;20033;-66
2022/05/14 05:48:53;;;;;;;1.08;0.93;;;;;;;15.37;87.79;101115.88;5019747;28;20045;-67
2022/05/14 05:51:19;;;;;;;1.27;1.05;;;;;;;15.37;88.12;101102.31;5024374;28;20076;-67
2022/05/14 05:56:46;;;;;;;2.95;0.85;;;;;;;15.39;88.04;101113.59;5027735;28;20029;-66
2022/05/14 05:59:14;;;;;;;2.72;1.40;;;;;;;15.35;88.49;101112.78;5021913;28;20513;-67
2022/05/14 06:01:40;;;;;;;4.45;0.82;;;;;;;15.40;88.33;101117.88;5021599;28;20041;-67
2022/05/14 06:04:06;;;;;;;1.33;0.93;;;;;;;15.39;87.89;101117.09;5028219;28;20045;-67
2022/05/14 06:06:31;;;;;;;3.42;1.08;;;;;;;15.37;88.47;101118.59;5019973;28;20034;-66
2022/05/14 06:08:58;;;;;;;2.65;0.95;;;;;;;15.48;88.02;101114.09;5018450;28;20029;-66
2022/05/14 06:11:25;;;;;;;1.70;1.15;;;;;;;15.48;88.02;101110.59;5027185;28;20033;-67
2022/05/14 06:13:51;;;;;;;1.00;0.77;;;;;;;15.50;88.01;101121.84;5028824;28;20095;-66
2022/05/14 06:16:16;;;;;;;0.95;0.82;;;;;;;15.62;88.13;101111.47;5024056;28;20025;-66
2022/05/14 06:18:44;;;;;;;1.98;0.70;;;;;;;15.60;88.33;101118.44;5025021;28;20029;-66
2022/05/14 06:21:11;;;;;;;3.75;1.40;;;;;;;15.69;87.95;101118.88;5024767;28;20069;-66
2022/05/14 06:23:37;;;;;;;3.60;1.00;;;;;;;15.67;88.00;101124.72;5030978;28;20033;-66
2022/05/14 06:26:02;;;;;;;1.75;0.73;;;;;;;15.81;87.89;101127.53;5024674;28;20396;-66
2022/05/14 06:28:28;;;;;;;1.55;0.95;;;;;;;15.80;87.32;101125.94;5022772;28;20515;-66
2022/05/14 06:30:56;;;;;;;4.57;0.73;;;;;;;15.78;87.92;101133.69;5028007;28;20044;-67
2022/05/14 06:33:21;;;;;;;2.38;0.95;;;;;;;15.89;87.33;101134.53;5027844;28;20056;-66
2022/05/14 06:35:47;;;;;;;1.48;0.60;;;;;;;15.87;87.04;101131.41;5025005;28;20033;-66
2022/05/14 06:38:14;;;;;;;6.07;1.10;;;;;;;15.98;87.04;101136.94;5025751;28;20060;-67
2022/05/14 06:40:40;;;;;;;8.38;1.20;;;;;;;16.08;86.48;101137.00;5027899;28;20037;-66
2022/05/14 06:43:05;;;;;;;7.82;1.42;;;;;;;16.14;86.55;101140.16;5027895;28;20120;-66
2022/05/14 06:45:31;;;;;;;2.22;1.08;;;;;;;16.19;86.53;101146.00;5019384;28;20571;-66
2022/05/14 06:47:57;;;;;;;1.98;0.73;;;;;;;16.20;86.26;101149.50;5025374;28;20408;-66
2022/05/14 06:50:24;;;;;;;2.50;1.50;;;;;;;16.39;85.68;101148.41;5026806;28;20408;-66
2022/05/14 06:52:54;;;;;;;2.20;1.42;;;;;;;16.42;85.20;101147.63;5023920;28;20090;-66
2022/05/14 06:55:22;;;;;;;2.28;0.90;;;;;;;16.57;85.17;101154.75;5024887;28;20048;-66
2022/05/14 06:57:50;;;;;;;3.72;0.95;;;;;;;16.65;84.77;101153.59;5027548;28;20029;-66
2022/05/14 07:00:16;;;;;;;2.05;1.35;;;;;;;16.71;84.55;101158.28;5027730;28;20053;-66
2022/05/14 07:02:43;;;;;;;4.90;2.40;;;;;;;16.88;84.39;101156.78;5022053;28;20079;-66
2022/05/14 07:07:53;;;;;;;2.53;0.77;;;;;;;17.33;82.56;101164.25;5021606;28;20033;-66
2022/05/14 07:10:19;;;;;;;1.20;0.77;;;;;;;17.53;81.70;101162.75;5027625;28;20507;-66
2022/05/14 07:12:44;;;;;;;1.70;1.05;;;;;;;17.60;81.20;101165.47;5022132;28;20041;-66
2022/05/14 07:15:12;;;;;;;2.40;1.08;;;;;;;17.83;80.20;101151.44;5037009;28;20455;-66
2022/05/14 07:17:38;;;;;;;1.65;0.75;;;;;;;17.95;79.39;101161.94;5014000;28;20369;-66
2022/05/14 07:20:05;;;;;;;3.92;0.98;;;;;;;18.11;79.05;101162.31;5025565;28;20069;-66
2022/05/14 07:22:30;;;;;;;3.63;0.75;;;;;;;18.23;78.47;101161.88;5024887;28;20033;-66
2022/05/14 07:24:57;;;;;;;1.90;1.15;;;;;;;18.38;78.09;101159.88;5029894;28;20075;-67
2022/05/14 07:27:22;;;;;;;3.35;1.42;;;;;;;18.69;77.54;101161.75;5030286;28;20120;-67
2022/05/14 07:29:47;;;;;;;6.13;1.55;;;;;;;18.82;76.81;101168.31;5028750;28;20032;-67
2022/05/14 07:32:16;;;;;;;2.53;1.55;;;;;;;18.95;75.47;101158.47;5029752;28;20406;-67
2022/05/14 07:34:42;;;;;;;3.38;0.80;;;;;;;18.94;73.50;101165.13;5027353;28;20522;-66
2022/05/14 07:37:33;;;;;;;3.75;0.65;;;;;;;19.03;73.15;101162.72;5030522;28;20037;-66
2022/05/14 07:40:08;;;;;;;3.80;0.88;;;;;;;19.10;72.89;101159.97;5024393;28;20416;-66
2022/05/14 07:42:41;;;;;;;1.35;0.80;;;;;;;19.22;73.57;101173.13;5028683;28;20033;-66
2022/05/14 07:45:10;;;;;;;3.80;0.98;;;;;;;19.28;72.81;101165.31;5030505;28;20072;-66
2022/05/14 07:47:38;;;;;;;1.02;0.63;;;;;;;19.51;72.18;101171.03;5028872;28;20026;-66
2022/05/14 07:50:05;;;;;;;4.38;0.98;;;;;;;19.70;71.00;101156.81;5031665;28;20411;-66
2022/05/14 07:52:30;;;;;;;9.18;0.82;;;;;;;19.92;70.81;101171.06;5019919;28;20174;-66
2022/05/14 07:54:56;;;;;;;1.98;0.73;;;;;;;19.98;70.19;101172.16;5022128;28;20562;-66
2022/05/14 07:57:21;;;;;;;1.45;1.00;;;;;;;20.14;68.86;101169.66;5027635;28;20389;-66
2022/05/14 07:59:47;;;;;;;3.08;0.82;;;;;;;20.22;67.90;101166.47;5029806;28;20080;-66
2022/05/14 08:02:22;;;;;;;2.08;0.73;;;;;;;20.29;66.04;101177.31;5013911;28;20120;-66
2022/05/14 08:04:50;;;;;;;0.70;0.63;;;;;;;20.12;65.69;101177.47;5018189;28;20112;-67
2022/05/14 08:07:15;;;;;;;0.82;0.73;;;;;;;19.94;65.83;101177.66;5018521;28;20128;-66
2022/05/14 08:09:41;;;;;;;2.65;1.23;;;;;;;19.64;66.77;101172.88;5028021;28;20048;-66
2022/05/14 08:12:07;;;;;;;5.85;2.00;;;;;;;19.50;66.80;101172.97;5028503;28;20037;-67
2022/05/14 08:14:33;;;;;;;1.88;0.70;;;;;;;19.37;67.82;101176.59;5028712;28;20178;-67
2022/05/14 08:16:59;;;;;;;0.80;0.57;;;;;;;19.36;68.59;101175.81;5027438;28;20041;-66
2022/05/14 08:19:24;;;;;;;1.38;0.60;;;;;;;19.51;69.03;101179.22;5026604;28;20099;-67
2022/05/14 08:24:34;;;;;;;3.00;1.10;;;;;;;20.13;66.81;101179.81;5031197;28;20030;-66
2022/05/14 08:27:06;;;;;;;3.88;0.75;;;;;;;20.51;64.47;101178.66;5029260;28;20487;-67
2022/05/14 08:29:32;;;;;;;3.53;1.25;;;;;;;20.73;63.13;101176.41;5029837;28;20033;-67
2022/05/14 08:31:59;;;;;;;1.00;0.50;;;;;;;20.85;62.17;101170.38;5042053;28;20532;-66
2022/05/14 08:34:25;;;;;;;1.98;0.65;;;;;;;20.89;61.21;101179.31;5011148;28;20149;-66
2022/05/14 08:36:50;;;;;;;2.65;0.80;;;;;;;21.05;60.76;101178.75;5023768;28;20041;-66
2022/05/14 08:39:16;;;;;;;3.10;0.75;;;;;;;21.20;60.50;101186.34;5030296;28;20044;-67
2022/05/14 08:41:47;;;;;;;1.75;1.10;;;;;;;21.14;59.87;101181.75;5031821;28;20041;-66
2022/05/14 08:44:17;;;;;;;2.72;0.55;;;;;;;21.00;59.69;101181.94;5016679;28;20045;-66
2022/05/14 08:46:44;;;;;;;1.03;0.50;;;;;;;20.92;58.87;101180.47;5020442;28;20135;-67
2022/05/14 08:49:20;;;;;;;0.47;0.40;;;;;;;20.95;57.58;101191.38;5026788;28;20048;-66
2022/05/14 08:51:50;;;;;;;1.33;0.65;;;;;;;21.13;57.40;101186.47;5030927;28;20041;-67
2022/05/14 08:54:17;;;;;;;1.38;0.80;;;;;;;21.34;57.30;101191.63;5041345;28;20025;-66
2022/05/14 08:56:43;;;;;;;5.40;0.70;;;;;;;21.50;56.26;101191.75;5018922;28;20643;-65
2022/05/14 08:59:40;;;;;;;0.70;0.50;;;;;;;21.84;55.52;101196.34;5018838;28;20022;-67
2022/05/14 09:02:15;;;;;;;1.63;0.52;;;;;;;21.86;54.95;101202.19;5022402;28;20100;-66
2022/05/14 09:04:40;;;;;;;2.80;0.40;;;;;;;21.98;55.16;101196.09;5017417;28;20041;-67
2022/05/14 09:07:06;;;;;;;0.63;0.57;;;;;;;22.22;54.52;101205.88;5010432;28;20070;-66
2022/05/14 09:09:32;;;;;;;1.20;0.52;;;;;;;22.36;52.36;101200.09;5010177;28;20471;-67
2022/05/14 09:12:00;;;;;;;2.67;0.50;;;;;;;22.54;53.08;101205.22;5012590;28;20037;-66
2022/05/14 09:14:39;;;;;;;2.72;0.52;;;;;;;22.74;51.91;101206.03;5012568;28;20025;-67
2022/05/14 09:17:07;;;;;;;1.05;0.40;;;;;;;22.97;51.56;101201.22;5011200;28;20121;-67
2022/05/14 09:19:39;;;;;;;5.07;0.43;;;;;;;23.06;50.63;101203.38;5007487;28;20037;-67
2022/05/14 09:22:22;;;;;;;0.50;0.25;;;;;;;23.01;50.99;101212.13;5016061;28;20274;-66
2022/05/14 09:24:53;;;;;;;1.50;0.30;;;;;;;22.73;50.39;101208.00;5012352;28;20649;-66
2022/05/14 09:27:30;;;;;;;1.25;0.47;;;;;;;22.54;51.22;101216.22;5008685;28;20037;-67
2022/05/14 09:30:06;;;;;;;1.00;0.30;;;;;;;22.38;51.04;101211.41;5017740;28;20104;-67
2022/05/14 09:32:39;;;;;;;0.30;0.30;;;;;;;22.23;51.04;101213.66;5015095;28;20748;-67
2022/05/14 09:35:10;;;;;;;0.80;0.22;;;;;;;22.10;51.95;101210.00;5019654;28;20033;-67
2022/05/14 09:37:36;;;;;;;1.77;0.40;;;;;;;21.95;52.09;101208.66;5018334;28;20033;-67
2022/05/14 09:40:10;;;;;;;2.90;0.32;;;;;;;22.03;51.51;101214.81;5021188;28;20117;-66
2022/05/14 09:42:50;;;;;;;2.33;0.88;;;;;;;22.02;51.17;101213.28;5015310;28;20036;-66
2022/05/14 09:45:22;;;;;;;0.40;0.30;;;;;;;21.96;52.21;101220.44;5003932;28;20056;-66
2022/05/14 09:47:48;;;;;;;1.48;0.40;;;;;;;22.00;51.79;101227.41;5012597;28;20030;-68
2022/05/14 09:50:21;;;;;;;1.13;0.50;;;;;;;21.96;51.98;101225.91;5008266;28;20033;-67
2022/05/14 09:52:56;;;;;;;4.53;0.40;;;;;;;21.87;52.10;101233.91;5017387;28;20037;-67
2022/05/14 09:55:28;;;;;;;0.22;0.22;;;;;;;21.85;53.11;101233.56;5017914;28;20029;-67
2022/05/14 09:58:00;;;;;;;0.55;0.50;;;;;;;21.97;51.95;101232.97;5021584;28;20071;-66
2022/05/14 10:00:40;;;;;;;0.57;0.47;;;;;;;21.88;52.10;101225.25;5024414;28;20039;-67
2022/05/14 10:03:19;;;;;;;0.60;0.30;;;;;;;21.77;51.67;101237.56;5002102;28;20135;-67
2022/05/14 10:05:53;;;;;;;4.18;0.55;;;;;;;21.81;51.39;101241.84;5011310;28;20044;-67
2022/05/14 10:08:46;;;;;;;1.23;0.40;;;;;;;21.70;52.15;101241.19;5019120;28;20429;-67
2022/05/14 10:11:21;;;;;;;2.97;0.50;;;;;;;21.53;52.66;101234.81;5018835;28;20021;-66
2022/05/14 10:14:20;;;;;;;1.15;0.30;;;;;;;21.52;52.51;101246.94;5024863;28;20396;-67
2022/05/14 10:17:21;;;;;;;1.70;0.40;;;;;;;21.45;52.89;101246.28;5018751;28;20476;-67
2022/05/14 10:19:47;;;;;;;0.45;0.30;;;;;;;21.22;53.01;101260.72;5017497;28;20964;-67
2022/05/14 10:22:15;;;;;;;0.90;0.32;;;;;;;21.08;52.83;101254.66;5024541;28;20427;-67
2022/05/14 10:27:58;;;;;;;0.40;0.30;;;;;;;21.20;53.76;101254.88;5024980;28;20437;-67
2022/05/14 10:30:52;;;;;;;0.70;0.50;;;;;;;21.21;53.80;101255.66;5041318;28;20103;-66
2022/05/14 10:33:23;;;;;;;0.98;0.63;;;;;;;21.18;54.37;101251.75;5014233;28;20045;-68
2022/05/14 10:36:15;;;;;;;2.27;0.77;;;;;;;21.28;53.28;101252.78;5011327;28;20041;-68
2022/05/14 10:38:57;;;;;;;6.57;0.93;;;;;;;21.43;51.73;101254.94;5022402;28;20116;-67
2022/05/14 10:41:31;;;;;;;1.38;1.00;;;;;;;21.50;51.33;101259.53;5019054;28;20111;-68
2022/05/14 10:44:09;;;;;;;0.70;0.38;;;;;;;21.53;50.60;101266.94;5011020;28;20164;-67
2022/05/14 10:46:36;;;;;;;0.90;0.47;;;;;;;21.43;51.11;101260.41;5010196;28;20488;-67
2022/05/14 10:49:20;;;;;;;0.60;0.40;;;;;;;21.36;51.76;101267.97;5013560;28;20221;-68
2022/05/14 10:51:49;;;;;;;2.92;0.40;;;;;;;21.23;52.37;101266.97;5019544;28;20042;-65
2022/05/14 10:54:17;;;;;;;5.82;0.80;;;;;;;21.07;52.69;101262.09;5018368;28;20037;-65
2022/05/14 10:56:59;;;;;;;1.42;0.60;;;;;;;21.00;53.31;101262.13;5023156;28;20041;-66
2022/05/14 10:59:40;;;;;;;1.85;0.70;;;;;;;20.94;54.48;101266.53;5028598;28;20436;-70
2022/05/14 11:02:12;;;;;;;4.40;0.50;;;;;;;20.99;54.34;101271.53;5025337;28;20033;-68
2022/05/14 11:04:40;;;;;;;0.93;0.30;;;;;;;20.97;53.16;101268.44;5028747;28;20033;-68
2022/05/14 11:07:10;;;;;;;1.65;0.85;;;;;;;20.95;53.29;101273.56;5021954;28;20117;-68
2022/05/14 11:09:49;;;;;;;1.10;0.40;;;;;;;20.86;53.81;101275.22;5045707;28;20451;-67
2022/05/14 11:12:18;;;;;;;3.80;0.60;;;;;;;20.86;53.96;101273.28;5023681;28;20037;-67
2022/05/14 11:14:51;;;;;;;0.70;0.30;;;;;;;20.78;54.80;101273.75;5029641;28;20049;-67
2022/05/14 11:17:19;;;;;;;5.05;1.00;;;;;;;20.78;54.98;101277.28;5027745;28;20053;-73
2022/05/14 11:19:45;;;;;;;1.15;0.45;;;;;;;20.89;55.05;101279.88;5028342;28;20076;-69
2022/05/14 11:22:19;;;;;;;0.88;0.40;;;;;;;21.04;55.81;101281.31;5027720;28;20046;-72
2022/05/14 11:24:45;;;;;;;1.67;0.28;;;;;;;21.11;54.71;101276.53;5014515;28;20041;-66
2022/05/14 11:27:14;;;;;;;0.30;0.28;;;;;;;21.14;53.84;101283.91;5023178;28;20445;-67
2022/05/14 11:29:54;;;;;;;0.77;0.30;;;;;;;21.19;53.28;101291.69;5028168;28;20388;-67
2022/05/14 11:32:22;;;;;;;0.52;0.40;;;;;;;21.32;53.16;101292.69;5028033;28;20578;-65
2022/05/14 11:34:53;;;;;;;1.67;0.52;;;;;;;21.39;53.06;101292.56;5027201;28;20459;-67
2022/05/14 11:37:31;;;;;;;;;;;;;;;21.24;53.70;101290.44;5024732;28;20035;-67
2022/05/14 11:40:14;;;;;;;1.70;0.45;;;;;;;21.29;54.04;101288.00;5029821;28;19940;-65
2022/05/14 11:42:41;;;;;;;1.50;0.43;;;;;;;21.34;53.96;101295.78;5028788;28;20021;-66
2022/05/14 11:45:20;;;;;;;2.60;0.55;;;;;;;21.43;54.10;101293.31;5022187;28;20044;-67
2022/05/14 11:48:27;;;;;;;0.47;0.40;;;;;;;21.49;54.15;101302.63;5020573;28;20038;-66
2022/05/14 11:51:04;;;;;;;1.88;0.50;;;;;;;21.39;53.64;101300.78;5031405;28;20039;-70
2022/05/14 11:54:08;;;;;;;1.02;0.35;;;;;;;21.34;53.63;101314.19;5022989;28;20033;-66